sensor_id;sensor_type;location;lat;lon;timestamp;temperature;humidity
26541;DHT22;14206;50.202;10.948;2023-07-29T00:01:34;19.60;96.60
26541;DHT22;14206;50.202;10.948;2023-07-29T00:04:02;19.60;96.60
26541;DHT22;14206;50.202;10.948;2023-07-29T00:06:32;19.50;96.60
26541;DHT22;14206;50.202;10.948;2023-07-29T00:09:00;19.50;96.60
26541;DHT22;14206;50.202;10.948;2023-07-29T00:11:27;19.50;96.60
26541;DHT22;14206;50.202;10.948;2023-07-29T00:13:54;19.50;96.60
26541;DHT22;14206;50.202;10.948;2023-07-29T00:16:21;19.50;96.60
26541;DHT22;14206;50.202;10.948;2023-07-29T00:18:51;19.60;96.60
26541;DHT22;14206;50.202;10.948;2023-07-29T00:21:18;19.60;96.60
26541;DHT22;14206;50.202;10.948;2023-07-29T00:23:45;19.60;96.60
26541;DHT22;14206;50.202;10.948;2023-07-29T00:26:12;19.60;96.60
26541;DHT22;14206;50.202;10.948;2023-07-29T00:28:39;19.60;96.60
26541;DHT22;14206;50.202;10.948;2023-07-29T00:31:06;19.60;96.60
26541;DHT22;14206;50.202;10.948;2023-07-29T00:33:34;19.60;96.60
26541;DHT22;14206;50.202;10.948;2023-07-29T00:36:00;19.60;96.60
26541;DHT22;14206;50.202;10.948;2023-07-29T00:38:29;19.70;96.60
26541;DHT22;14206;50.202;10.948;2023-07-29T00:41:01;19.70;96.60
26541;DHT22;14206;50.202;10.948;2023-07-29T00:43:29;19.70;96.60
26541;DHT22;14206;50.202;10.948;2023-07-29T00:45:56;19.60;96.60
26541;DHT22;14206;50.202;10.948;2023-07-29T00:48:25;19.60;96.60
26541;DHT22;14206;50.202;10.948;2023-07-29T00:50:53;19.60;96.60
26541;DHT22;14206;50.202;10.948;2023-07-29T00:53:20;19.60;96.60
26541;DHT22;14206;50.202;10.948;2023-07-29T00:55:49;19.60;96.60
26541;DHT22;14206;50.202;10.948;2023-07-29T00:58:16;19.60;96.60
26541;DHT22;14206;50.202;10.948;2023-07-29T01:00:43;19.60;96.60
26541;DHT22;14206;50.202;10.948;2023-07-29T01:03:10;19.70;96.60
26541;DHT22;14206;50.202;10.948;2023-07-29T01:06:04;19.70;96.60
26541;DHT22;14206;50.202;10.948;2023-07-29T01:08:43;19.70;96.60
26541;DHT22;14206;50.202;10.948;2023-07-29T01:11:33;19.60;96.60
26541;DHT22;14206;50.202;10.948;2023-07-29T01:16:56;19.70;96.60
26541;DHT22;14206;50.202;10.948;2023-07-29T01:19:34;19.70;96.60
26541;DHT22;14206;50.202;10.948;2023-07-29T01:22:08;19.70;96.60
26541;DHT22;14206;50.202;10.948;2023-07-29T01:24:35;19.70;96.60
26541;DHT22;14206;50.202;10.948;2023-07-29T01:27:02;19.70;96.60
26541;DHT22;14206;50.202;10.948;2023-07-29T01:29:31;19.70;96.60
26541;DHT22;14206;50.202;10.948;2023-07-29T01:32:06;19.70;96.60
26541;DHT22;14206;50.202;10.948;2023-07-29T01:34:53;19.60;96.60
26541;DHT22;14206;50.202;10.948;2023-07-29T01:37:27;19.60;96.60
26541;DHT22;14206;50.202;10.948;2023-07-29T01:39:59;19.60;96.60
26541;DHT22;14206;50.202;10.948;2023-07-29T01:42:26;19.60;96.60
26541;DHT22;14206;50.202;10.948;2023-07-29T01:44:56;19.60;96.60
26541;DHT22;14206;50.202;10.948;2023-07-29T01:47:24;19.60;96.60
26541;DHT22;14206;50.202;10.948;2023-07-29T01:49:54;19.60;96.60
26541;DHT22;14206;50.202;10.948;2023-07-29T01:52:21;19.60;96.60
26541;DHT22;14206;50.202;10.948;2023-07-29T01:54:48;19.60;96.60
26541;DHT22;14206;50.202;10.948;2023-07-29T01:57:14;19.60;96.60
26541;DHT22;14206;50.202;10.948;2023-07-29T01:59:41;19.60;96.60
26541;DHT22;14206;50.202;10.948;2023-07-29T02:02:08;19.50;96.60
26541;DHT22;14206;50.202;10.948;2023-07-29T02:04:35;19.50;96.60
26541;DHT22;14206;50.202;10.948;2023-07-29T02:07:02;19.50;96.60
26541;DHT22;14206;50.202;10.948;2023-07-29T02:09:29;19.40;96.60
26541;DHT22;14206;50.202;10.948;2023-07-29T02:11:57;19.40;96.60
26541;DHT22;14206;50.202;10.948;2023-07-29T02:14:24;19.40;96.60
26541;DHT22;14206;50.202;10.948;2023-07-29T02:16:51;19.40;96.60
26541;DHT22;14206;50.202;10.948;2023-07-29T02:19:18;19.40;96.60
26541;DHT22;14206;50.202;10.948;2023-07-29T02:21:45;19.40;96.60
26541;DHT22;14206;50.202;10.948;2023-07-29T02:24:12;19.40;96.60
26541;DHT22;14206;50.202;10.948;2023-07-29T02:26:39;19.50;96.60
26541;DHT22;14206;50.202;10.948;2023-07-29T02:29:05;19.50;96.60
26541;DHT22;14206;50.202;10.948;2023-07-29T02:31:32;19.50;96.60
26541;DHT22;14206;50.202;10.948;2023-07-29T02:34:01;19.50;96.60
26541;DHT22;14206;50.202;10.948;2023-07-29T02:36:29;19.50;96.60
26541;DHT22;14206;50.202;10.948;2023-07-29T02:38:56;19.60;96.60
26541;DHT22;14206;50.202;10.948;2023-07-29T02:41:23;19.60;96.60
26541;DHT22;14206;50.202;10.948;2023-07-29T02:43:50;19.60;96.60
26541;DHT22;14206;50.202;10.948;2023-07-29T02:46:17;19.60;96.60
26541;DHT22;14206;50.202;10.948;2023-07-29T02:48:45;19.60;96.60
26541;DHT22;14206;50.202;10.948;2023-07-29T02:51:12;19.60;96.60
26541;DHT22;14206;50.202;10.948;2023-07-29T02:53:39;19.60;96.60
26541;DHT22;14206;50.202;10.948;2023-07-29T02:56:06;19.60;96.60
26541;DHT22;14206;50.202;10.948;2023-07-29T02:58:36;19.50;96.60
26541;DHT22;14206;50.202;10.948;2023-07-29T03:01:05;19.50;96.60
26541;DHT22;14206;50.202;10.948;2023-07-29T03:03:33;19.40;96.60
26541;DHT22;14206;50.202;10.948;2023-07-29T03:06:02;19.40;96.60
26541;DHT22;14206;50.202;10.948;2023-07-29T03:08:30;19.40;96.60
26541;DHT22;14206;50.202;10.948;2023-07-29T03:10:57;19.30;96.60
26541;DHT22;14206;50.202;10.948;2023-07-29T03:13:24;19.30;96.60
26541;DHT22;14206;50.202;10.948;2023-07-29T03:15:52;19.30;96.60
26541;DHT22;14206;50.202;10.948;2023-07-29T03:18:18;19.20;96.60
26541;DHT22;14206;50.202;10.948;2023-07-29T03:20:46;19.10;96.60
26541;DHT22;14206;50.202;10.948;2023-07-29T03:23:12;19.00;96.60
26541;DHT22;14206;50.202;10.948;2023-07-29T03:25:39;18.90;96.60
26541;DHT22;14206;50.202;10.948;2023-07-29T03:28:06;18.90;96.60
26541;DHT22;14206;50.202;10.948;2023-07-29T03:30:33;18.80;96.60
26541;DHT22;14206;50.202;10.948;2023-07-29T03:33:00;18.80;96.60
26541;DHT22;14206;50.202;10.948;2023-07-29T03:35:27;18.80;96.60
26541;DHT22;14206;50.202;10.948;2023-07-29T03:37:54;18.70;96.60
26541;DHT22;14206;50.202;10.948;2023-07-29T03:40:21;18.70;96.60
26541;DHT22;14206;50.202;10.948;2023-07-29T03:42:48;18.70;96.60
26541;DHT22;14206;50.202;10.948;2023-07-29T03:45:14;18.70;96.60
26541;DHT22;14206;50.202;10.948;2023-07-29T03:47:42;18.70;96.60
26541;DHT22;14206;50.202;10.948;2023-07-29T03:50:09;18.70;96.60
26541;DHT22;14206;50.202;10.948;2023-07-29T03:52:36;18.80;96.60
26541;DHT22;14206;50.202;10.948;2023-07-29T03:55:03;18.80;96.60
26541;DHT22;14206;50.202;10.948;2023-07-29T03:57:29;18.80;96.60
26541;DHT22;14206;50.202;10.948;2023-07-29T03:59:57;18.90;96.60
26541;DHT22;14206;50.202;10.948;2023-07-29T04:02:23;18.90;96.60
26541;DHT22;14206;50.202;10.948;2023-07-29T04:04:50;18.90;96.60
26541;DHT22;14206;50.202;10.948;2023-07-29T04:07:18;19.00;96.60
26541;DHT22;14206;50.202;10.948;2023-07-29T04:09:45;19.00;96.60
26541;DHT22;14206;50.202;10.948;2023-07-29T04:12:12;19.10;96.60
26541;DHT22;14206;50.202;10.948;2023-07-29T04:14:39;19.10;96.60
26541;DHT22;14206;50.202;10.948;2023-07-29T04:17:07;19.10;96.60
26541;DHT22;14206;50.202;10.948;2023-07-29T04:19:34;19.10;96.60
26541;DHT22;14206;50.202;10.948;2023-07-29T04:22:01;19.10;96.60
26541;DHT22;14206;50.202;10.948;2023-07-29T04:24:28;19.10;96.60
26541;DHT22;14206;50.202;10.948;2023-07-29T04:26:55;19.10;96.60
26541;DHT22;14206;50.202;10.948;2023-07-29T04:29:22;19.10;96.60
26541;DHT22;14206;50.202;10.948;2023-07-29T04:31:52;19.10;96.60
26541;DHT22;14206;50.202;10.948;2023-07-29T04:34:19;19.20;96.60
26541;DHT22;14206;50.202;10.948;2023-07-29T04:36:47;19.20;96.60
26541;DHT22;14206;50.202;10.948;2023-07-29T04:39:16;19.30;96.60
26541;DHT22;14206;50.202;10.948;2023-07-29T04:41:43;19.30;96.60
26541;DHT22;14206;50.202;10.948;2023-07-29T04:44:10;19.40;96.60
26541;DHT22;14206;50.202;10.948;2023-07-29T04:46:37;19.60;96.60
26541;DHT22;14206;50.202;10.948;2023-07-29T04:49:04;19.70;96.60
26541;DHT22;14206;50.202;10.948;2023-07-29T04:51:31;19.80;96.60
26541;DHT22;14206;50.202;10.948;2023-07-29T04:53:59;19.90;96.60
26541;DHT22;14206;50.202;10.948;2023-07-29T04:56:25;19.90;96.60
26541;DHT22;14206;50.202;10.948;2023-07-29T04:58:52;19.90;96.60
26541;DHT22;14206;50.202;10.948;2023-07-29T05:01:20;19.80;96.60
26541;DHT22;14206;50.202;10.948;2023-07-29T05:03:47;19.60;96.60
26541;DHT22;14206;50.202;10.948;2023-07-29T05:06:14;19.40;96.60
26541;DHT22;14206;50.202;10.948;2023-07-29T05:08:41;19.10;96.60
26541;DHT22;14206;50.202;10.948;2023-07-29T05:11:08;18.90;96.60
26541;DHT22;14206;50.202;10.948;2023-07-29T05:13:35;18.70;96.60
26541;DHT22;14206;50.202;10.948;2023-07-29T05:16:01;18.60;96.60
26541;DHT22;14206;50.202;10.948;2023-07-29T05:18:28;18.60;96.60
26541;DHT22;14206;50.202;10.948;2023-07-29T05:20:55;18.50;96.60
26541;DHT22;14206;50.202;10.948;2023-07-29T05:23:22;18.50;96.60
26541;DHT22;14206;50.202;10.948;2023-07-29T05:25:49;18.50;96.60
26541;DHT22;14206;50.202;10.948;2023-07-29T05:28:16;18.40;96.60
26541;DHT22;14206;50.202;10.948;2023-07-29T05:30:43;18.40;96.60
26541;DHT22;14206;50.202;10.948;2023-07-29T05:33:10;18.50;96.60
26541;DHT22;14206;50.202;10.948;2023-07-29T05:35:39;18.50;96.60
26541;DHT22;14206;50.202;10.948;2023-07-29T05:38:06;18.50;96.60
26541;DHT22;14206;50.202;10.948;2023-07-29T05:40:35;18.60;96.60
26541;DHT22;14206;50.202;10.948;2023-07-29T05:43:01;18.60;96.60
26541;DHT22;14206;50.202;10.948;2023-07-29T05:45:30;18.60;96.60
26541;DHT22;14206;50.202;10.948;2023-07-29T05:47:59;18.70;96.60
26541;DHT22;14206;50.202;10.948;2023-07-29T05:50:26;18.70;96.60
26541;DHT22;14206;50.202;10.948;2023-07-29T05:52:53;18.70;96.60
26541;DHT22;14206;50.202;10.948;2023-07-29T05:55:20;18.70;96.60
26541;DHT22;14206;50.202;10.948;2023-07-29T05:57:47;18.80;96.60
26541;DHT22;14206;50.202;10.948;2023-07-29T06:00:14;18.90;96.60
26541;DHT22;14206;50.202;10.948;2023-07-29T06:02:41;19.00;96.60
26541;DHT22;14206;50.202;10.948;2023-07-29T06:05:12;19.10;96.60
26541;DHT22;14206;50.202;10.948;2023-07-29T06:07:40;19.10;96.60
26541;DHT22;14206;50.202;10.948;2023-07-29T06:10:13;19.10;96.60
26541;DHT22;14206;50.202;10.948;2023-07-29T06:12:41;19.20;96.60
26541;DHT22;14206;50.202;10.948;2023-07-29T06:15:08;19.20;96.60
26541;DHT22;14206;50.202;10.948;2023-07-29T06:17:35;19.10;96.60
26541;DHT22;14206;50.202;10.948;2023-07-29T06:20:02;19.10;96.60
26541;DHT22;14206;50.202;10.948;2023-07-29T06:22:30;19.20;96.60
26541;DHT22;14206;50.202;10.948;2023-07-29T06:24:56;19.30;96.60
26541;DHT22;14206;50.202;10.948;2023-07-29T06:27:24;19.40;96.60
26541;DHT22;14206;50.202;10.948;2023-07-29T06:29:51;19.70;96.60
26541;DHT22;14206;50.202;10.948;2023-07-29T06:32:18;19.80;96.60
26541;DHT22;14206;50.202;10.948;2023-07-29T06:34:45;19.80;96.60
26541;DHT22;14206;50.202;10.948;2023-07-29T06:37:12;19.80;96.60
26541;DHT22;14206;50.202;10.948;2023-07-29T06:39:39;19.80;96.60
26541;DHT22;14206;50.202;10.948;2023-07-29T06:42:06;19.80;96.60
26541;DHT22;14206;50.202;10.948;2023-07-29T06:44:32;19.80;96.60
26541;DHT22;14206;50.202;10.948;2023-07-29T06:46:59;19.80;96.60
26541;DHT22;14206;50.202;10.948;2023-07-29T06:49:26;19.80;96.60
26541;DHT22;14206;50.202;10.948;2023-07-29T06:51:53;19.80;96.60
26541;DHT22;14206;50.202;10.948;2023-07-29T06:54:24;19.80;96.60
26541;DHT22;14206;50.202;10.948;2023-07-29T06:56:52;19.80;96.60
26541;DHT22;14206;50.202;10.948;2023-07-29T06:59:19;19.90;96.60
26541;DHT22;14206;50.202;10.948;2023-07-29T07:01:46;20.00;96.60
26541;DHT22;14206;50.202;10.948;2023-07-29T07:04:13;20.00;96.60
26541;DHT22;14206;50.202;10.948;2023-07-29T07:06:40;20.00;96.60
26541;DHT22;14206;50.202;10.948;2023-07-29T07:09:06;20.10;96.60
26541;DHT22;14206;50.202;10.948;2023-07-29T07:11:33;20.10;96.60
26541;DHT22;14206;50.202;10.948;2023-07-29T07:14:00;20.10;96.60
26541;DHT22;14206;50.202;10.948;2023-07-29T07:16:27;20.10;96.60
26541;DHT22;14206;50.202;10.948;2023-07-29T07:18:57;20.10;96.60
26541;DHT22;14206;50.202;10.948;2023-07-29T07:21:23;20.00;96.60
26541;DHT22;14206;50.202;10.948;2023-07-29T07:23:50;20.00;96.60
26541;DHT22;14206;50.202;10.948;2023-07-29T07:26:18;20.00;96.60
26541;DHT22;14206;50.202;10.948;2023-07-29T07:28:44;20.00;96.60
26541;DHT22;14206;50.202;10.948;2023-07-29T07:31:11;19.90;96.60
26541;DHT22;14206;50.202;10.948;2023-07-29T07:33:38;19.80;96.60
26541;DHT22;14206;50.202;10.948;2023-07-29T07:36:05;19.70;96.60
26541;DHT22;14206;50.202;10.948;2023-07-29T07:38:32;19.70;96.60
26541;DHT22;14206;50.202;10.948;2023-07-29T07:40:59;19.60;96.60
26541;DHT22;14206;50.202;10.948;2023-07-29T07:43:26;19.50;96.60
26541;DHT22;14206;50.202;10.948;2023-07-29T07:46:03;19.50;96.60
26541;DHT22;14206;50.202;10.948;2023-07-29T07:48:30;19.50;96.60
26541;DHT22;14206;50.202;10.948;2023-07-29T07:51:04;19.60;96.60
26541;DHT22;14206;50.202;10.948;2023-07-29T07:53:35;19.60;96.60
26541;DHT22;14206;50.202;10.948;2023-07-29T07:56:03;19.70;96.60
26541;DHT22;14206;50.202;10.948;2023-07-29T07:58:29;19.80;96.60
26541;DHT22;14206;50.202;10.948;2023-07-29T08:01:03;19.80;96.60
26541;DHT22;14206;50.202;10.948;2023-07-29T08:03:30;19.80;96.60
26541;DHT22;14206;50.202;10.948;2023-07-29T08:05:58;19.90;96.60
26541;DHT22;14206;50.202;10.948;2023-07-29T08:08:26;20.00;96.60
26541;DHT22;14206;50.202;10.948;2023-07-29T08:10:54;20.10;96.60
26541;DHT22;14206;50.202;10.948;2023-07-29T08:13:22;20.10;96.60
26541;DHT22;14206;50.202;10.948;2023-07-29T08:15:51;20.10;96.60
26541;DHT22;14206;50.202;10.948;2023-07-29T08:18:19;20.10;96.60
26541;DHT22;14206;50.202;10.948;2023-07-29T08:20:57;20.10;96.60
26541;DHT22;14206;50.202;10.948;2023-07-29T08:23:31;20.10;96.60
26541;DHT22;14206;50.202;10.948;2023-07-29T08:26:00;20.10;96.60
26541;DHT22;14206;50.202;10.948;2023-07-29T08:28:33;20.10;96.60
26541;DHT22;14206;50.202;10.948;2023-07-29T08:31:00;20.10;96.60
26541;DHT22;14206;50.202;10.948;2023-07-29T08:33:28;20.10;96.60
26541;DHT22;14206;50.202;10.948;2023-07-29T08:35:55;20.00;96.60
26541;DHT22;14206;50.202;10.948;2023-07-29T08:38:22;19.90;96.60
26541;DHT22;14206;50.202;10.948;2023-07-29T08:43:34;20.00;96.60
26541;DHT22;14206;50.202;10.948;2023-07-29T08:46:04;20.10;96.60
26541;DHT22;14206;50.202;10.948;2023-07-29T08:48:40;20.10;96.60
26541;DHT22;14206;50.202;10.948;2023-07-29T08:51:09;20.00;96.60
26541;DHT22;14206;50.202;10.948;2023-07-29T08:53:37;20.00;96.60
26541;DHT22;14206;50.202;10.948;2023-07-29T08:56:04;20.10;96.60
26541;DHT22;14206;50.202;10.948;2023-07-29T08:58:32;20.30;96.60
26541;DHT22;14206;50.202;10.948;2023-07-29T09:01:00;20.50;96.60
26541;DHT22;14206;50.202;10.948;2023-07-29T09:03:27;21.00;96.60
26541;DHT22;14206;50.202;10.948;2023-07-29T09:05:55;21.50;96.60
26541;DHT22;14206;50.202;10.948;2023-07-29T09:08:27;21.60;96.60
26541;DHT22;14206;50.202;10.948;2023-07-29T09:10:55;21.60;96.60
26541;DHT22;14206;50.202;10.948;2023-07-29T09:13:22;21.60;96.60
26541;DHT22;14206;50.202;10.948;2023-07-29T09:15:49;21.40;96.60
26541;DHT22;14206;50.202;10.948;2023-07-29T09:18:20;21.30;96.60
26541;DHT22;14206;50.202;10.948;2023-07-29T09:20:48;21.10;96.60
26541;DHT22;14206;50.202;10.948;2023-07-29T09:23:15;21.10;96.60
26541;DHT22;14206;50.202;10.948;2023-07-29T09:25:42;21.10;96.60
26541;DHT22;14206;50.202;10.948;2023-07-29T09:28:12;21.20;96.60
26541;DHT22;14206;50.202;10.948;2023-07-29T09:30:40;21.10;96.60
26541;DHT22;14206;50.202;10.948;2023-07-29T09:33:07;21.10;96.60
26541;DHT22;14206;50.202;10.948;2023-07-29T09:35:36;20.90;96.60
26541;DHT22;14206;50.202;10.948;2023-07-29T09:38:06;20.80;96.60
26541;DHT22;14206;50.202;10.948;2023-07-29T09:40:38;20.60;96.60
26541;DHT22;14206;50.202;10.948;2023-07-29T09:43:07;20.30;96.60
26541;DHT22;14206;50.202;10.948;2023-07-29T09:45:35;20.00;96.60
26541;DHT22;14206;50.202;10.948;2023-07-29T09:48:03;19.70;96.60
26541;DHT22;14206;50.202;10.948;2023-07-29T09:50:32;19.60;96.60
26541;DHT22;14206;50.202;10.948;2023-07-29T09:52:58;19.40;96.60
26541;DHT22;14206;50.202;10.948;2023-07-29T09:55:26;19.40;96.60
26541;DHT22;14206;50.202;10.948;2023-07-29T09:57:57;19.40;96.60
26541;DHT22;14206;50.202;10.948;2023-07-29T10:00:28;19.50;96.60
26541;DHT22;14206;50.202;10.948;2023-07-29T10:02:56;19.60;96.60
26541;DHT22;14206;50.202;10.948;2023-07-29T10:05:28;19.80;96.60
26541;DHT22;14206;50.202;10.948;2023-07-29T10:07:56;20.10;96.60
26541;DHT22;14206;50.202;10.948;2023-07-29T10:10:23;20.60;96.60
26541;DHT22;14206;50.202;10.948;2023-07-29T10:12:50;20.90;96.60
26541;DHT22;14206;50.202;10.948;2023-07-29T10:15:17;21.10;96.60
26541;DHT22;14206;50.202;10.948;2023-07-29T10:17:46;21.10;96.60
26541;DHT22;14206;50.202;10.948;2023-07-29T10:20:18;21.10;96.60
26541;DHT22;14206;50.202;10.948;2023-07-29T10:22:47;21.10;96.60
26541;DHT22;14206;50.202;10.948;2023-07-29T10:25:21;21.20;96.60
26541;DHT22;14206;50.202;10.948;2023-07-29T10:28:21;21.60;96.60
26541;DHT22;14206;50.202;10.948;2023-07-29T10:30:52;22.30;96.60
26541;DHT22;14206;50.202;10.948;2023-07-29T10:33:18;22.70;96.60
26541;DHT22;14206;50.202;10.948;2023-07-29T10:35:46;22.90;96.60
26541;DHT22;14206;50.202;10.948;2023-07-29T10:38:13;23.00;96.60
26541;DHT22;14206;50.202;10.948;2023-07-29T10:40:55;23.30;96.60
26541;DHT22;14206;50.202;10.948;2023-07-29T10:43:33;23.70;96.60
26541;DHT22;14206;50.202;10.948;2023-07-29T10:46:20;24.00;94.40
26541;DHT22;14206;50.202;10.948;2023-07-29T10:53:54;24.00;96.60
26541;DHT22;14206;50.202;10.948;2023-07-29T10:56:32;24.10;94.40
26541;DHT22;14206;50.202;10.948;2023-07-29T11:01:40;25.20;90.60
26541;DHT22;14206;50.202;10.948;2023-07-29T11:04:22;26.40;88.60
26541;DHT22;14206;50.202;10.948;2023-07-29T11:09:54;27.30;84.70
26541;DHT22;14206;50.202;10.948;2023-07-29T11:12:46;27.50;83.10
26541;DHT22;14206;50.202;10.948;2023-07-29T11:15:28;27.60;83.30
26541;DHT22;14206;50.202;10.948;2023-07-29T11:17:58;27.20;82.70
26541;DHT22;14206;50.202;10.948;2023-07-29T11:20:29;26.50;84.70
26541;DHT22;14206;50.202;10.948;2023-07-29T11:22:58;26.50;83.20
26541;DHT22;14206;50.202;10.948;2023-07-29T11:25:28;26.60;82.40
26541;DHT22;14206;50.202;10.948;2023-07-29T11:27:56;27.00;81.50
26541;DHT22;14206;50.202;10.948;2023-07-29T11:30:24;27.10;80.20
26541;DHT22;14206;50.202;10.948;2023-07-29T11:32:54;27.30;81.80
26541;DHT22;14206;50.202;10.948;2023-07-29T11:35:22;28.00;81.80
26541;DHT22;14206;50.202;10.948;2023-07-29T11:37:54;28.30;78.80
26541;DHT22;14206;50.202;10.948;2023-07-29T11:40:22;28.70;78.70
26541;DHT22;14206;50.202;10.948;2023-07-29T11:42:51;29.50;75.50
26541;DHT22;14206;50.202;10.948;2023-07-29T11:45:20;30.40;76.60
26541;DHT22;14206;50.202;10.948;2023-07-29T11:47:47;31.40;72.70
26541;DHT22;14206;50.202;10.948;2023-07-29T11:50:15;32.30;70.40
26541;DHT22;14206;50.202;10.948;2023-07-29T11:52:44;32.90;68.50
26541;DHT22;14206;50.202;10.948;2023-07-29T11:55:12;33.30;64.80
26541;DHT22;14206;50.202;10.948;2023-07-29T11:57:40;33.50;65.60
26541;DHT22;14206;50.202;10.948;2023-07-29T12:00:09;33.60;65.60
26541;DHT22;14206;50.202;10.948;2023-07-29T12:02:39;33.90;63.10
26541;DHT22;14206;50.202;10.948;2023-07-29T12:05:08;33.90;62.30
26541;DHT22;14206;50.202;10.948;2023-07-29T12:07:38;34.00;61.60
26541;DHT22;14206;50.202;10.948;2023-07-29T12:10:06;33.90;61.40
26541;DHT22;14206;50.202;10.948;2023-07-29T12:12:40;33.90;62.00
26541;DHT22;14206;50.202;10.948;2023-07-29T12:15:10;33.60;61.90
26541;DHT22;14206;50.202;10.948;2023-07-29T12:17:41;33.20;64.70
26541;DHT22;14206;50.202;10.948;2023-07-29T12:20:09;33.50;65.40
26541;DHT22;14206;50.202;10.948;2023-07-29T12:22:37;33.90;62.50
26541;DHT22;14206;50.202;10.948;2023-07-29T12:25:05;34.20;63.20
26541;DHT22;14206;50.202;10.948;2023-07-29T12:27:33;34.40;58.10
26541;DHT22;14206;50.202;10.948;2023-07-29T12:30:01;34.40;59.00
26541;DHT22;14206;50.202;10.948;2023-07-29T12:32:30;34.60;59.00
26541;DHT22;14206;50.202;10.948;2023-07-29T12:34:57;34.10;59.50
26541;DHT22;14206;50.202;10.948;2023-07-29T12:37:33;34.20;60.30
26541;DHT22;14206;50.202;10.948;2023-07-29T12:40:01;34.50;59.40
26541;DHT22;14206;50.202;10.948;2023-07-29T12:42:28;34.80;59.50
26541;DHT22;14206;50.202;10.948;2023-07-29T12:44:55;34.40;57.30
26541;DHT22;14206;50.202;10.948;2023-07-29T12:47:22;33.50;58.90
26541;DHT22;14206;50.202;10.948;2023-07-29T12:49:49;33.40;59.80
26541;DHT22;14206;50.202;10.948;2023-07-29T12:52:16;33.10;60.20
26541;DHT22;14206;50.202;10.948;2023-07-29T12:54:42;32.50;60.80
26541;DHT22;14206;50.202;10.948;2023-07-29T12:57:11;31.70;64.50
26541;DHT22;14206;50.202;10.948;2023-07-29T12:59:38;31.10;65.90
26541;DHT22;14206;50.202;10.948;2023-07-29T13:02:05;30.80;64.40
26541;DHT22;14206;50.202;10.948;2023-07-29T13:04:33;30.80;64.80
26541;DHT22;14206;50.202;10.948;2023-07-29T13:07:00;30.90;63.50
26541;DHT22;14206;50.202;10.948;2023-07-29T13:09:27;31.00;63.70
26541;DHT22;14206;50.202;10.948;2023-07-29T13:11:54;31.00;64.80
26541;DHT22;14206;50.202;10.948;2023-07-29T13:14:21;30.90;63.60
26541;DHT22;14206;50.202;10.948;2023-07-29T13:16:48;30.50;63.60
26541;DHT22;14206;50.202;10.948;2023-07-29T13:19:15;29.90;64.50
26541;DHT22;14206;50.202;10.948;2023-07-29T13:21:42;29.20;66.90
26541;DHT22;14206;50.202;10.948;2023-07-29T13:24:09;28.70;69.10
26541;DHT22;14206;50.202;10.948;2023-07-29T13:26:41;28.30;69.10
26541;DHT22;14206;50.202;10.948;2023-07-29T13:29:09;28.00;69.30
26541;DHT22;14206;50.202;10.948;2023-07-29T13:31:41;27.80;71.70
26541;DHT22;14206;50.202;10.948;2023-07-29T13:34:11;27.60;70.90
26541;DHT22;14206;50.202;10.948;2023-07-29T13:36:39;27.60;72.10
26541;DHT22;14206;50.202;10.948;2023-07-29T13:39:06;27.50;70.80
26541;DHT22;14206;50.202;10.948;2023-07-29T13:41:33;27.30;71.00
26541;DHT22;14206;50.202;10.948;2023-07-29T13:44:00;27.20;71.50
26541;DHT22;14206;50.202;10.948;2023-07-29T13:46:27;27.10;72.40
26541;DHT22;14206;50.202;10.948;2023-07-29T13:48:54;26.90;72.00
26541;DHT22;14206;50.202;10.948;2023-07-29T13:51:21;26.70;73.40
26541;DHT22;14206;50.202;10.948;2023-07-29T13:53:48;26.80;74.80
26541;DHT22;14206;50.202;10.948;2023-07-29T13:56:15;26.80;74.30
26541;DHT22;14206;50.202;10.948;2023-07-29T13:58:41;26.80;73.20
26541;DHT22;14206;50.202;10.948;2023-07-29T14:01:08;26.80;73.50
26541;DHT22;14206;50.202;10.948;2023-07-29T14:03:35;26.80;75.00
26541;DHT22;14206;50.202;10.948;2023-07-29T14:06:02;26.90;73.70
26541;DHT22;14206;50.202;10.948;2023-07-29T14:08:29;27.10;72.80
26541;DHT22;14206;50.202;10.948;2023-07-29T14:10:56;27.30;70.70
26541;DHT22;14206;50.202;10.948;2023-07-29T14:13:23;27.30;71.40
26541;DHT22;14206;50.202;10.948;2023-07-29T14:15:50;27.30;70.50
26541;DHT22;14206;50.202;10.948;2023-07-29T14:18:17;27.20;70.60
26541;DHT22;14206;50.202;10.948;2023-07-29T14:20:44;26.90;71.10
26541;DHT22;14206;50.202;10.948;2023-07-29T14:23:11;26.80;71.90
26541;DHT22;14206;50.202;10.948;2023-07-29T14:25:38;26.60;72.00
26541;DHT22;14206;50.202;10.948;2023-07-29T14:28:05;26.40;71.60
26541;DHT22;14206;50.202;10.948;2023-07-29T14:30:32;26.30;72.70
26541;DHT22;14206;50.202;10.948;2023-07-29T14:32:59;26.10;73.00
26541;DHT22;14206;50.202;10.948;2023-07-29T14:35:26;26.00;72.80
26541;DHT22;14206;50.202;10.948;2023-07-29T14:37:55;25.80;73.80
26541;DHT22;14206;50.202;10.948;2023-07-29T14:40:22;25.60;74.30
26541;DHT22;14206;50.202;10.948;2023-07-29T14:42:49;25.60;75.00
26541;DHT22;14206;50.202;10.948;2023-07-29T14:45:16;25.50;75.80
26541;DHT22;14206;50.202;10.948;2023-07-29T14:47:43;25.30;76.60
26541;DHT22;14206;50.202;10.948;2023-07-29T14:50:09;25.30;77.00
26541;DHT22;14206;50.202;10.948;2023-07-29T14:52:36;25.20;77.50
26541;DHT22;14206;50.202;10.948;2023-07-29T14:55:03;25.10;80.60
26541;DHT22;14206;50.202;10.948;2023-07-29T14:57:30;24.70;84.50
26541;DHT22;14206;50.202;10.948;2023-07-29T14:59:57;24.10;85.70
26541;DHT22;14206;50.202;10.948;2023-07-29T15:02:24;23.10;88.30
26541;DHT22;14206;50.202;10.948;2023-07-29T15:04:52;22.10;88.20
26541;DHT22;14206;50.202;10.948;2023-07-29T15:07:19;21.20;90.30
26541;DHT22;14206;50.202;10.948;2023-07-29T15:09:47;20.40;91.80
26541;DHT22;14206;50.202;10.948;2023-07-29T15:12:14;19.80;95.60
26541;DHT22;14206;50.202;10.948;2023-07-29T15:14:41;19.40;96.60
26541;DHT22;14206;50.202;10.948;2023-07-29T15:17:09;19.00;96.60
26541;DHT22;14206;50.202;10.948;2023-07-29T15:19:36;18.70;96.60
26541;DHT22;14206;50.202;10.948;2023-07-29T15:22:03;18.60;96.60
26541;DHT22;14206;50.202;10.948;2023-07-29T15:24:31;18.60;96.60
26541;DHT22;14206;50.202;10.948;2023-07-29T15:26:58;18.80;96.60
26541;DHT22;14206;50.202;10.948;2023-07-29T15:29:26;18.90;96.60
26541;DHT22;14206;50.202;10.948;2023-07-29T15:31:53;19.00;96.60
26541;DHT22;14206;50.202;10.948;2023-07-29T15:34:20;19.20;96.60
26541;DHT22;14206;50.202;10.948;2023-07-29T15:36:50;19.40;96.60
26541;DHT22;14206;50.202;10.948;2023-07-29T15:39:17;19.70;96.60